createdAt,value
2018-05-26T00:00:56.974Z,99.90
2018-05-26T00:04:59.961Z,99.90
2018-05-26T00:09:03.679Z,99.90
2018-05-26T00:13:07.414Z,99.90
2018-05-26T00:17:10.569Z,99.90
2018-05-26T00:21:13.486Z,99.90
2018-05-26T00:25:16.706Z,99.90
2018-05-26T00:29:20.334Z,99.90
2018-05-26T00:33:23.125Z,99.90
2018-05-26T00:37:26.067Z,99.90
2018-05-26T00:41:29.301Z,99.90
2018-05-26T00:45:32.065Z,99.90
2018-05-26T00:49:35.312Z,99.90
2018-05-26T00:53:38.615Z,99.90
2018-05-26T00:57:41.472Z,99.90
2018-05-26T01:01:44.210Z,99.90
2018-05-26T01:05:47.035Z,99.90
2018-05-26T01:09:50.375Z,99.90
2018-05-26T01:13:53.158Z,99.90
2018-05-26T01:17:55.984Z,99.90
2018-05-26T01:21:59.542Z,99.90
2018-05-26T01:26:02.375Z,99.90
2018-05-26T01:30:05.178Z,99.90
2018-05-26T01:34:08.230Z,99.90
2018-05-26T01:38:11.805Z,99.90
2018-05-26T01:42:16.533Z,99.90
2018-05-26T01:46:19.596Z,99.90
2018-05-26T01:50:22.573Z,99.90
2018-05-26T01:54:25.557Z,99.90
2018-05-26T01:58:30.179Z,99.90
2018-05-26T02:02:33.074Z,99.90
2018-05-26T02:06:35.886Z,99.90
2018-05-26T02:10:38.781Z,99.90
2018-05-26T02:14:42.405Z,99.90
2018-05-26T02:18:45.684Z,99.90
2018-05-26T02:22:48.681Z,99.90
2018-05-26T02:26:51.670Z,99.90
2018-05-26T02:30:55.199Z,99.90
2018-05-26T02:34:58.066Z,99.90
2018-05-26T02:39:02.207Z,99.90
2018-05-26T02:43:06.134Z,99.90
2018-05-26T02:47:09.121Z,99.90
2018-05-26T02:51:12.702Z,99.90
2018-05-26T02:55:15.516Z,99.90
2018-05-26T02:59:18.372Z,99.90
2018-05-26T03:03:21.690Z,99.90
2018-05-26T03:07:31.181Z,99.90
2018-05-26T03:11:39.788Z,99.90
2018-05-26T03:15:54.472Z,99.90
2018-05-26T03:19:57.264Z,99.90
2018-05-26T03:24:00.144Z,99.90
2018-05-26T03:28:03.952Z,99.90
2018-05-26T03:32:06.713Z,99.90
2018-05-26T03:36:09.717Z,99.90
2018-05-26T03:40:12.561Z,99.90
2018-05-26T03:44:15.948Z,99.90
2018-05-26T03:48:19.532Z,99.90
2018-05-26T03:52:23.029Z,99.90
2018-05-26T03:56:38.027Z,99.90
2018-05-26T04:00:41.334Z,99.90
2018-05-26T04:04:46.281Z,99.90
2018-05-26T04:08:50.121Z,99.90
2018-05-26T04:12:52.853Z,99.90
2018-05-26T04:16:55.810Z,99.90
2018-05-26T04:20:58.562Z,99.90
2018-05-26T04:25:01.704Z,99.90
2018-05-26T04:29:05.032Z,99.90
2018-05-26T04:33:07.867Z,99.90
2018-05-26T04:37:10.927Z,99.90
2018-05-26T04:41:14.150Z,99.90
2018-05-26T04:45:17.635Z,99.90
2018-05-26T04:49:20.578Z,99.90
2018-05-26T04:53:23.501Z,99.90
2018-05-26T04:57:26.333Z,99.90
2018-05-26T05:01:30.056Z,99.90
2018-05-26T05:05:33.367Z,99.90
2018-05-26T05:09:36.320Z,99.90
2018-05-26T05:13:39.135Z,99.90
2018-05-26T05:17:42.111Z,99.90
2018-05-26T05:21:44.901Z,99.90
2018-05-26T05:25:47.657Z,99.90
2018-05-26T05:29:51.197Z,99.90
2018-05-26T05:33:55.133Z,99.90
2018-05-26T05:37:58.124Z,99.90
2018-05-26T05:42:01.947Z,99.90
2018-05-26T05:46:04.632Z,99.90
2018-05-26T05:50:07.724Z,99.90
2018-05-26T05:54:10.635Z,99.90
2018-05-26T05:58:13.360Z,99.90
2018-05-26T06:02:16.360Z,99.90
2018-05-26T06:06:20.048Z,99.90
2018-05-26T06:10:23.440Z,99.90
2018-05-26T06:14:26.929Z,99.90
2018-05-26T06:18:29.802Z,99.90
2018-05-26T06:22:32.721Z,99.90
2018-05-26T06:26:35.567Z,99.90
2018-05-26T06:30:38.529Z,99.90
2018-05-26T06:34:42.273Z,99.90
2018-05-26T06:38:47.259Z,99.90
2018-05-26T06:43:03.130Z,99.90
2018-05-26T06:47:05.978Z,99.90
2018-05-26T06:51:09.824Z,99.90
2018-05-26T06:55:13.709Z,99.90
2018-05-26T06:59:16.622Z,99.90
2018-05-26T07:03:19.575Z,99.90
2018-05-26T07:07:22.816Z,99.90
2018-05-26T07:11:25.805Z,99.90
2018-05-26T07:15:28.515Z,99.90
2018-05-26T07:19:31.784Z,98.40
2018-05-26T07:23:34.693Z,96.70
2018-05-26T07:27:37.510Z,96.00
2018-05-26T07:31:40.379Z,95.50
2018-05-26T07:35:43.447Z,93.40
2018-05-26T07:39:48.164Z,92.60
2018-05-26T07:43:51.257Z,93.00
2018-05-26T07:47:54.984Z,92.40
2018-05-26T07:51:57.770Z,91.80
2018-05-26T07:56:00.718Z,92.20
2018-05-26T08:01:42.168Z,92.80
2018-05-26T08:05:44.994Z,87.50
2018-05-26T08:09:47.697Z,89.10
2018-05-26T08:13:50.597Z,86.00
2018-05-26T08:17:53.298Z,86.10
2018-05-26T08:21:56.673Z,83.60
2018-05-26T08:25:59.551Z,87.50
2018-05-26T08:30:02.352Z,81.30
2018-05-26T08:34:05.175Z,81.50
2018-05-26T08:38:07.882Z,81.60
2018-05-26T08:42:10.642Z,77.40
2018-05-26T08:46:13.357Z,77.20
2018-05-26T08:50:16.109Z,73.50
2018-05-26T08:54:18.917Z,71.10
2018-05-26T08:58:22.378Z,62.50
2018-05-26T09:02:25.177Z,62.60
2018-05-26T09:06:28.099Z,63.30
2018-05-26T09:10:30.788Z,63.70
2018-05-26T09:14:33.497Z,62.80
2018-05-26T09:18:36.479Z,62.00
2018-05-26T09:22:39.222Z,62.50
2018-05-26T09:26:42.791Z,57.40
2018-05-26T09:30:45.501Z,57.40
2018-05-26T09:34:48.229Z,59.00
2018-05-26T09:38:51.710Z,56.30
2018-05-26T09:42:54.432Z,56.10
2018-05-26T09:46:57.128Z,54.60
2018-05-26T09:50:59.853Z,58.70
2018-05-26T09:55:02.726Z,54.80
2018-05-26T09:59:06.194Z,57.90
2018-05-26T10:03:09.700Z,51.20
2018-05-26T10:07:12.423Z,51.20
2018-05-26T10:11:15.120Z,54.30
2018-05-26T10:15:17.866Z,52.80
2018-05-26T10:19:20.697Z,49.70
2018-05-26T10:23:23.395Z,50.90
2018-05-26T10:27:26.161Z,49.80
2018-05-26T10:31:29.045Z,49.80
2018-05-26T10:35:32.661Z,47.80
2018-05-26T10:39:35.357Z,47.80
2018-05-26T10:43:38.841Z,50.60
2018-05-26T10:47:41.680Z,50.30
2018-05-26T10:51:45.136Z,49.10
2018-05-26T10:55:47.990Z,49.10
2018-05-26T10:59:50.869Z,46.90
2018-05-26T11:03:53.591Z,50.00
2018-05-26T11:07:57.159Z,54.30
2018-05-26T11:11:59.999Z,54.20
2018-05-26T11:16:03.499Z,51.30
2018-05-26T11:20:06.800Z,51.30
2018-05-26T11:24:09.604Z,50.40
2018-05-26T11:28:12.317Z,50.90
2018-05-26T11:32:15.184Z,55.90
2018-05-26T11:36:17.945Z,53.30
2018-05-26T11:40:22.738Z,48.30
2018-05-26T11:44:25.569Z,46.20
2018-05-26T11:48:28.374Z,45.40
2018-05-26T11:52:31.413Z,48.00
2018-05-26T11:56:34.214Z,47.60
2018-05-26T12:00:36.991Z,45.70
2018-05-26T12:04:39.680Z,49.80
2018-05-26T12:08:42.379Z,50.30
2018-05-26T12:12:45.161Z,49.00
2018-05-26T12:16:48.005Z,44.30
2018-05-26T12:20:50.797Z,45.60
2018-05-26T12:24:53.620Z,45.80
2018-05-26T12:28:57.217Z,48.20
2018-05-26T12:33:00.953Z,44.80
2018-05-26T12:37:03.675Z,44.80
2018-05-26T12:41:07.235Z,46.00
2018-05-26T12:45:10.061Z,45.80
2018-05-26T12:49:12.879Z,41.70
2018-05-26T12:53:15.849Z,37.00
2018-05-26T12:57:18.570Z,40.80
2018-05-26T13:01:21.462Z,45.60
2018-05-26T13:05:24.241Z,49.10
2018-05-26T13:09:26.966Z,53.10
2018-05-26T13:13:29.917Z,56.80
2018-05-26T13:17:32.722Z,59.30
2018-05-26T13:21:35.557Z,60.60
2018-05-26T13:25:38.375Z,61.00
2018-05-26T13:29:41.161Z,62.10
2018-05-26T13:33:43.949Z,62.40
2018-05-26T13:37:46.773Z,57.40
2018-05-26T13:41:50.365Z,55.50
2018-05-26T13:45:53.148Z,55.50
2018-05-26T13:49:56.550Z,59.10
2018-05-26T13:53:59.405Z,61.00
2018-05-26T13:58:02.150Z,56.20
2018-05-26T14:02:05.027Z,56.20
2018-05-26T14:06:07.831Z,50.40
2018-05-26T14:10:10.575Z,44.00
2018-05-26T14:14:13.564Z,42.10
2018-05-26T14:18:16.465Z,40.20
2018-05-26T14:22:19.254Z,40.20
2018-05-26T14:26:22.173Z,40.30
2018-05-26T14:30:24.953Z,44.20
2018-05-26T14:34:27.748Z,40.80
2018-05-26T14:38:30.491Z,36.20
2018-05-26T14:42:34.102Z,35.40
2018-05-26T14:46:37.779Z,35.40
2018-05-26T14:50:43.048Z,33.60
2018-05-26T14:54:48.239Z,32.20
2018-05-26T14:58:51.022Z,32.20
2018-05-26T15:02:54.527Z,39.00
2018-05-26T15:06:57.541Z,38.90
2018-05-26T15:11:01.125Z,39.00
2018-05-26T15:15:03.976Z,39.00
2018-05-26T15:19:06.877Z,40.20
2018-05-26T15:23:09.870Z,36.20
2018-05-26T15:27:12.624Z,37.00
2018-05-26T15:31:15.352Z,37.00
2018-05-26T15:35:18.884Z,33.40
2018-05-26T15:39:21.675Z,33.30
2018-05-26T15:43:24.495Z,34.10
2018-05-26T15:47:28.033Z,39.10
2018-05-26T15:51:34.323Z,38.10
2018-05-26T15:55:37.365Z,37.10
2018-05-26T15:59:40.125Z,38.00
2018-05-26T16:03:42.831Z,38.70
2018-05-26T16:07:45.879Z,36.30
2018-05-26T16:11:48.681Z,37.80
2018-05-26T16:15:51.383Z,35.50
2018-05-26T16:19:54.551Z,39.20
2018-05-26T16:23:59.744Z,43.00
2018-05-26T16:28:03.677Z,48.70
2018-05-26T16:32:06.400Z,48.10
2018-05-26T16:36:10.241Z,51.20
2018-05-26T16:40:13.412Z,53.90
2018-05-26T16:44:17.178Z,56.60
2018-05-26T16:48:21.358Z,57.90
2018-05-26T16:52:25.379Z,57.90
2018-05-26T16:56:28.525Z,58.80
2018-05-26T17:00:31.339Z,62.00
2018-05-26T17:04:37.638Z,66.20
2018-05-26T17:08:41.619Z,66.20
2018-05-26T17:12:45.346Z,69.20
2018-05-26T17:16:48.382Z,68.70
2018-05-26T17:20:54.523Z,72.70
2018-05-26T17:24:57.419Z,73.00
2018-05-26T17:29:00.329Z,74.50
2018-05-26T17:33:03.565Z,75.40
2018-05-26T17:37:06.386Z,75.80
2018-05-26T17:41:09.617Z,77.80
2018-05-26T17:45:16.164Z,77.20
2018-05-26T17:49:19.137Z,78.30
2018-05-26T17:53:21.949Z,81.20
2018-05-26T17:57:24.689Z,84.20
2018-05-26T18:01:27.443Z,84.80
2018-05-26T18:05:30.176Z,85.50
2018-05-26T18:09:33.133Z,87.00
2018-05-26T18:13:36.721Z,86.90
2018-05-26T18:17:39.460Z,86.80
2018-05-26T18:21:42.255Z,88.30
2018-05-26T18:25:45.300Z,90.30
2018-05-26T18:29:48.109Z,90.40
2018-05-26T18:33:51.055Z,91.50
2018-05-26T18:37:53.827Z,92.00
2018-05-26T18:41:56.647Z,92.50
2018-05-26T18:46:00.232Z,94.00
2018-05-26T18:50:02.995Z,94.00
2018-05-26T18:54:05.746Z,94.60
2018-05-26T18:58:08.612Z,94.70
2018-05-26T19:02:11.374Z,95.30
2018-05-26T19:06:14.217Z,95.50
2018-05-26T19:10:16.941Z,95.80
2018-05-26T19:14:20.472Z,96.40
2018-05-26T19:18:23.323Z,96.40
2018-05-26T19:22:26.054Z,96.40
2018-05-26T19:26:29.631Z,97.00
2018-05-26T19:30:32.345Z,96.90
2018-05-26T19:34:35.210Z,97.20
2018-05-26T19:38:38.026Z,97.40
2018-05-26T19:42:40.781Z,97.40
2018-05-26T19:46:47.914Z,97.50
2018-05-26T19:50:50.706Z,97.30
2018-05-26T19:54:53.419Z,97.20
2018-05-26T19:58:56.139Z,97.80
2018-05-26T20:02:58.917Z,97.50
2018-05-26T20:07:04.746Z,98.10
2018-05-26T20:11:07.764Z,98.10
2018-05-26T20:15:11.557Z,98.10
2018-05-26T20:19:15.433Z,98.10
2018-05-26T20:23:18.588Z,98.20
2018-05-26T20:27:21.705Z,98.20
2018-05-26T20:31:25.355Z,98.70
2018-05-26T20:35:28.078Z,98.70
2018-05-26T20:39:30.805Z,98.60
2018-05-26T20:43:33.571Z,98.80
2018-05-26T20:47:36.273Z,98.80
2018-05-26T20:51:39.748Z,99.20
2018-05-26T20:55:42.631Z,98.90
2018-05-26T20:59:45.438Z,99.00
2018-05-26T21:03:48.162Z,99.00
2018-05-26T21:07:51.066Z,99.30
2018-05-26T21:11:53.771Z,99.10
2018-05-26T21:15:56.622Z,99.10
2018-05-26T21:19:59.349Z,99.20
2018-05-26T21:24:02.268Z,99.20
2018-05-26T21:28:04.994Z,99.20
2018-05-26T21:32:08.798Z,99.20
2018-05-26T21:36:12.277Z,99.40
2018-05-26T21:40:15.097Z,99.40
2018-05-26T21:44:17.819Z,99.60
2018-05-26T21:48:20.663Z,99.80
2018-05-26T21:52:23.406Z,99.60
2018-05-26T21:56:26.978Z,99.50
2018-05-26T22:00:29.757Z,99.50
2018-05-26T22:04:32.567Z,99.60
2018-05-26T22:08:35.310Z,99.50
2018-05-26T22:12:38.124Z,99.50
2018-05-26T22:16:41.641Z,99.60
2018-05-26T22:20:44.443Z,99.60
2018-05-26T22:24:47.224Z,99.60
2018-05-26T22:28:50.755Z,99.70
2018-05-26T22:32:53.522Z,99.70
2018-05-26T22:36:56.285Z,99.70
2018-05-26T22:40:59.010Z,99.70
2018-05-26T22:45:01.782Z,99.70
2018-05-26T22:49:04.494Z,99.70
2018-05-26T22:53:07.905Z,99.70
2018-05-26T22:57:10.683Z,99.70
2018-05-26T23:01:14.254Z,99.80
2018-05-26T23:05:17.752Z,99.80
2018-05-26T23:09:20.473Z,99.80
2018-05-26T23:13:23.270Z,99.80
2018-05-26T23:17:25.969Z,99.80
2018-05-26T23:21:28.957Z,99.80
2018-05-26T23:25:32.446Z,99.80
2018-05-26T23:29:35.256Z,99.80
2018-05-26T23:33:37.966Z,99.80
2018-05-26T23:37:41.547Z,99.80
2018-05-26T23:41:44.337Z,99.80
2018-05-26T23:45:47.311Z,99.90
2018-05-26T23:49:50.094Z,99.90
2018-05-26T23:53:52.877Z,99.90
2018-05-26T23:57:56.390Z,99.90
